createdAt,value
2023-02-23T00:01:30.233Z,1.59
2023-02-23T00:03:59.066Z,1.59
2023-02-23T00:06:28.420Z,1.57
2023-02-23T00:08:55.879Z,1.58
2023-02-23T00:11:23.031Z,1.58
2023-02-23T00:13:51.264Z,1.56
2023-02-23T00:16:21.717Z,1.56
2023-02-23T00:18:53.612Z,1.56
2023-02-23T00:21:30.019Z,1.55
2023-02-23T00:24:01.791Z,1.52
2023-02-23T00:26:33.946Z,1.51
2023-02-23T00:29:02.983Z,1.51
2023-02-23T00:31:30.315Z,1.52
2023-02-23T00:34:03.221Z,1.52
2023-02-23T00:36:35.009Z,1.51
2023-02-23T00:39:17.571Z,1.48
2023-02-23T00:41:45.680Z,1.44
2023-02-23T00:44:15.920Z,1.42
2023-02-23T00:46:44.660Z,1.41
2023-02-23T00:49:13.499Z,1.39
2023-02-23T00:51:41.805Z,1.38
2023-02-23T00:54:11.738Z,1.36
2023-02-23T00:56:39.889Z,1.33
2023-02-23T00:59:07.565Z,1.31
2023-02-23T01:01:35.235Z,1.31
2023-02-23T01:04:02.541Z,1.29
2023-02-23T01:06:30.899Z,1.28
2023-02-23T01:08:58.305Z,1.27
2023-02-23T01:11:29.057Z,1.25
2023-02-23T01:13:58.751Z,1.23
2023-02-23T01:16:29.026Z,1.22
2023-02-23T01:18:59.469Z,1.21
2023-02-23T01:21:29.842Z,1.19
2023-02-23T01:23:57.646Z,1.19
2023-02-23T01:26:36.790Z,1.18
2023-02-23T01:29:08.949Z,1.17
2023-02-23T01:31:38.247Z,1.17
2023-02-23T01:34:06.842Z,1.15
2023-02-23T01:36:36.640Z,1.15
2023-02-23T01:39:07.700Z,1.15
2023-02-23T01:41:36.943Z,1.15
2023-02-23T01:44:28.370Z,1.14
2023-02-23T01:46:56.344Z,1.12
2023-02-23T01:49:26.367Z,1.11
2023-02-23T01:52:00.821Z,1.11
2023-02-23T01:54:33.595Z,1.10
2023-02-23T01:57:03.046Z,1.08
2023-02-23T01:59:35.183Z,1.06
2023-02-23T02:02:05.447Z,1.03
2023-02-23T02:04:44.515Z,1.00
2023-02-23T02:07:29.227Z,0.98
2023-02-23T02:10:13.887Z,0.96
2023-02-23T02:12:55.679Z,0.91
2023-02-23T02:15:28.253Z,0.91
2023-02-23T02:18:30.889Z,0.91
2023-02-23T02:21:40.869Z,0.91
2023-02-23T02:24:26.732Z,0.93
2023-02-23T02:27:13.702Z,0.94
2023-02-23T02:30:14.079Z,0.93
2023-02-23T02:33:04.165Z,0.92
2023-02-23T02:36:01.706Z,0.89
2023-02-23T02:38:53.966Z,0.88
2023-02-23T02:41:25.913Z,0.87
2023-02-23T02:44:11.855Z,0.85
2023-02-23T02:46:45.172Z,0.83
2023-02-23T02:49:15.325Z,0.81
2023-02-23T02:52:00.824Z,0.80
2023-02-23T02:54:42.365Z,0.79
2023-02-23T02:57:12.255Z,0.77
2023-02-23T03:00:06.949Z,0.74
2023-02-23T03:02:56.937Z,0.72
2023-02-23T03:05:49.497Z,0.71
2023-02-23T03:09:00.120Z,0.70
2023-02-23T03:11:56.516Z,0.67
2023-02-23T03:14:59.567Z,0.66
2023-02-23T03:18:06.847Z,0.67
2023-02-23T03:20:52.924Z,0.66
2023-02-23T03:23:41.101Z,0.67
2023-02-23T03:26:33.458Z,0.64
2023-02-23T03:29:30.507Z,0.61
2023-02-23T03:32:37.911Z,0.58
2023-02-23T03:35:51.343Z,0.59
2023-02-23T03:38:51.793Z,0.62
2023-02-23T03:41:40.921Z,0.66
2023-02-23T03:44:34.426Z,0.67
2023-02-23T03:47:24.402Z,0.68
2023-02-23T03:50:12.481Z,0.68
2023-02-23T03:53:05.998Z,0.65
2023-02-23T03:55:54.855Z,0.65
2023-02-23T03:58:47.298Z,0.64
2023-02-23T04:01:35.803Z,0.64
2023-02-23T04:04:23.518Z,0.64
2023-02-23T04:07:10.983Z,0.63
2023-02-23T04:09:56.746Z,0.64
2023-02-23T04:12:52.068Z,0.63
2023-02-23T04:15:28.935Z,0.63
2023-02-23T04:17:56.828Z,0.63
2023-02-23T04:20:25.978Z,0.65
2023-02-23T04:22:53.185Z,0.64
2023-02-23T04:25:23.024Z,0.64
2023-02-23T04:27:50.936Z,0.62
2023-02-23T04:30:20.733Z,0.64
2023-02-23T04:32:48.008Z,0.63
2023-02-23T04:35:15.384Z,0.64
2023-02-23T04:37:42.534Z,0.65
2023-02-23T04:40:10.213Z,0.65
2023-02-23T04:42:40.014Z,0.59
2023-02-23T04:45:08.575Z,0.56
2023-02-23T04:47:35.696Z,0.55
2023-02-23T04:50:03.744Z,0.53
2023-02-23T04:52:31.589Z,0.53
2023-02-23T04:54:58.681Z,0.51
2023-02-23T04:57:27.018Z,0.49
2023-02-23T04:59:54.140Z,0.48
2023-02-23T05:02:21.415Z,0.46
2023-02-23T05:04:48.653Z,0.44
2023-02-23T05:07:15.819Z,0.40
2023-02-23T05:09:42.983Z,0.37
2023-02-23T05:12:10.165Z,0.33
2023-02-23T05:14:37.301Z,0.31
2023-02-23T05:17:04.450Z,0.30
2023-02-23T05:19:31.597Z,0.32
2023-02-23T05:21:58.826Z,0.37
2023-02-23T05:24:26.063Z,0.35
2023-02-23T05:26:53.999Z,0.34
2023-02-23T05:29:21.152Z,0.35
2023-02-23T05:31:48.832Z,0.32
2023-02-23T05:34:17.073Z,0.32
2023-02-23T05:36:44.185Z,0.30
2023-02-23T05:39:11.285Z,0.25
2023-02-23T05:41:38.406Z,0.25
2023-02-23T05:44:05.691Z,0.27
2023-02-23T05:46:32.954Z,0.23
2023-02-23T05:49:01.935Z,0.16
2023-02-23T05:51:31.987Z,0.16
2023-02-23T05:53:58.997Z,0.18
2023-02-23T05:56:26.587Z,0.17
2023-02-23T05:58:58.063Z,0.16
2023-02-23T06:01:27.025Z,0.17
2023-02-23T06:03:54.610Z,0.17
2023-02-23T06:06:22.484Z,0.15
2023-02-23T06:08:49.966Z,0.17
2023-02-23T06:11:17.675Z,0.19
2023-02-23T06:13:44.990Z,0.17
2023-02-23T06:16:12.260Z,0.17
2023-02-23T06:18:39.942Z,0.20
2023-02-23T06:21:07.570Z,0.21
2023-02-23T06:23:34.774Z,0.24
2023-02-23T06:26:01.928Z,0.22
2023-02-23T06:28:29.842Z,0.22
2023-02-23T06:30:57.698Z,0.27
2023-02-23T06:33:25.628Z,0.29
2023-02-23T06:35:54.828Z,0.31
2023-02-23T06:38:22.533Z,0.33
2023-02-23T06:40:49.688Z,0.30
2023-02-23T06:43:16.965Z,0.30
2023-02-23T06:45:44.152Z,0.34
2023-02-23T06:48:11.263Z,0.35
2023-02-23T06:50:38.470Z,0.31
2023-02-23T06:53:06.077Z,0.31
2023-02-23T06:55:33.191Z,0.35
2023-02-23T06:58:00.278Z,0.41
2023-02-23T07:00:27.580Z,0.39
2023-02-23T07:02:54.658Z,0.38
2023-02-23T07:05:21.782Z,0.43
2023-02-23T07:07:48.927Z,0.47
2023-02-23T07:10:16.089Z,0.52
2023-02-23T07:12:43.226Z,0.51
2023-02-23T07:15:10.842Z,0.54
2023-02-23T07:17:38.036Z,0.56
2023-02-23T07:20:05.645Z,0.60
2023-02-23T07:22:34.275Z,0.61
2023-02-23T07:25:01.343Z,0.52
2023-02-23T07:27:28.513Z,0.42
2023-02-23T07:29:55.662Z,0.36
2023-02-23T07:32:23.166Z,0.34
2023-02-23T07:34:52.143Z,0.38
2023-02-23T07:37:21.559Z,0.41
2023-02-23T07:39:48.645Z,0.48
2023-02-23T07:42:15.773Z,0.58
2023-02-23T07:44:42.856Z,0.68
2023-02-23T07:47:11.044Z,0.76
2023-02-23T07:49:38.277Z,0.81
2023-02-23T07:52:05.459Z,0.81
2023-02-23T07:54:32.703Z,0.78
2023-02-23T07:57:00.360Z,0.75
2023-02-23T07:59:27.540Z,0.71
2023-02-23T08:01:54.641Z,0.71
2023-02-23T08:04:21.778Z,0.75
2023-02-23T08:06:48.998Z,0.78
2023-02-23T08:09:16.144Z,0.80
2023-02-23T08:11:43.976Z,0.79
2023-02-23T08:14:11.341Z,0.82
2023-02-23T08:16:38.816Z,0.87
2023-02-23T08:19:05.981Z,0.93
2023-02-23T08:21:32.972Z,0.98
2023-02-23T08:24:00.233Z,1.03
2023-02-23T08:26:27.325Z,1.03
2023-02-23T08:28:55.049Z,1.02
2023-02-23T08:31:24.454Z,1.02
2023-02-23T08:33:53.135Z,1.07
2023-02-23T08:36:23.338Z,1.07
2023-02-23T08:38:50.809Z,1.12
2023-02-23T08:41:18.232Z,1.18
2023-02-23T08:43:45.671Z,1.22
2023-02-23T08:46:13.428Z,1.22
2023-02-23T08:48:40.813Z,1.27
2023-02-23T08:51:08.767Z,1.38
2023-02-23T08:53:36.633Z,1.43
2023-02-23T08:56:07.344Z,1.47
2023-02-23T08:58:36.235Z,1.47
2023-02-23T09:01:03.962Z,1.51
2023-02-23T09:03:33.848Z,1.53
2023-02-23T09:06:22.973Z,1.59
2023-02-23T09:08:50.340Z,1.71
2023-02-23T09:11:17.873Z,1.76
2023-02-23T09:13:45.155Z,1.80
2023-02-23T09:16:13.953Z,1.89
2023-02-23T09:18:41.693Z,1.93
2023-02-23T09:21:19.240Z,1.98
2023-02-23T09:23:48.395Z,2.01
2023-02-23T09:26:18.132Z,2.05
2023-02-23T09:28:46.275Z,2.10
2023-02-23T09:31:18.886Z,2.13
2023-02-23T09:33:46.586Z,2.19
2023-02-23T09:36:16.683Z,2.23
2023-02-23T09:38:46.794Z,2.28
2023-02-23T09:41:28.185Z,2.35
2023-02-23T09:44:22.303Z,2.41
2023-02-23T09:47:13.302Z,2.54
2023-02-23T09:49:45.192Z,2.65
2023-02-23T09:52:19.457Z,2.74
2023-02-23T09:54:47.442Z,2.81
2023-02-23T09:57:20.242Z,2.84
2023-02-23T09:59:47.541Z,2.95
2023-02-23T10:02:34.997Z,3.06
2023-02-23T10:05:05.513Z,3.17
2023-02-23T10:07:47.270Z,3.33
2023-02-23T10:10:24.064Z,3.52
2023-02-23T10:13:12.411Z,3.68
2023-02-23T10:16:21.684Z,3.76
2023-02-23T10:19:04.146Z,3.90
2023-02-23T10:21:38.594Z,3.96
2023-02-23T10:24:13.599Z,4.02
2023-02-23T10:26:54.589Z,4.02
2023-02-23T10:29:33.013Z,4.06
2023-02-23T10:32:05.459Z,4.17
2023-02-23T10:34:32.614Z,4.26
2023-02-23T10:37:06.269Z,4.35
2023-02-23T10:39:34.667Z,4.45
2023-02-23T10:42:07.913Z,4.52
2023-02-23T10:44:35.170Z,4.60
2023-02-23T10:47:08.360Z,4.70
2023-02-23T10:49:43.725Z,4.75
2023-02-23T10:52:13.732Z,4.77
2023-02-23T10:54:51.544Z,4.81
2023-02-23T10:57:31.104Z,4.82
2023-02-23T11:00:01.152Z,4.90
2023-02-23T11:02:31.034Z,5.00
2023-02-23T11:05:00.922Z,5.11
2023-02-23T11:07:31.543Z,5.10
2023-02-23T11:10:00.307Z,5.06
2023-02-23T11:12:36.649Z,5.10
2023-02-23T11:15:50.450Z,5.22
2023-02-23T11:18:23.682Z,5.39
2023-02-23T11:20:52.167Z,5.47
2023-02-23T11:23:29.430Z,5.57
2023-02-23T11:26:03.190Z,5.62
2023-02-23T11:28:41.903Z,5.58
2023-02-23T11:31:16.275Z,5.44
2023-02-23T11:33:44.305Z,5.35
2023-02-23T11:36:27.787Z,5.26
2023-02-23T11:39:30.229Z,5.22
2023-02-23T11:42:15.183Z,5.22
2023-02-23T11:44:42.450Z,5.30
2023-02-23T11:47:19.365Z,5.30
2023-02-23T11:49:48.548Z,5.26
2023-02-23T11:52:22.043Z,5.19
2023-02-23T11:55:12.782Z,5.23
2023-02-23T11:57:39.897Z,5.27
2023-02-23T12:00:22.726Z,5.23
2023-02-23T12:02:58.811Z,5.30
2023-02-23T12:05:33.852Z,5.32
2023-02-23T12:08:11.682Z,5.41
2023-02-23T12:10:52.106Z,5.48
2023-02-23T12:13:27.673Z,5.52
2023-02-23T12:16:17.809Z,5.54
2023-02-23T12:19:06.559Z,5.60
2023-02-23T12:21:53.878Z,5.65
2023-02-23T12:24:36.236Z,5.70
2023-02-23T12:27:23.294Z,5.69
2023-02-23T12:30:13.993Z,5.62
2023-02-23T12:32:41.120Z,5.50
2023-02-23T12:35:16.676Z,5.53
2023-02-23T12:37:50.973Z,5.53
2023-02-23T12:40:30.202Z,5.55
2023-02-23T12:43:11.997Z,5.56
2023-02-23T12:45:49.361Z,5.62
2023-02-23T12:48:35.488Z,5.67
2023-02-23T12:51:09.774Z,5.64
2023-02-23T12:53:42.633Z,5.67
2023-02-23T12:56:19.080Z,5.71
2023-02-23T12:59:17.463Z,5.72
2023-02-23T13:02:03.099Z,5.75
2023-02-23T13:04:55.492Z,5.82
2023-02-23T13:07:41.926Z,5.79
2023-02-23T13:10:30.497Z,5.79
2023-02-23T13:13:06.689Z,5.79
2023-02-23T13:15:52.263Z,5.82
2023-02-23T13:18:26.462Z,5.79
2023-02-23T13:20:56.528Z,5.82
2023-02-23T13:23:35.636Z,5.87
2023-02-23T13:26:30.637Z,5.84
2023-02-23T13:29:08.038Z,5.84
2023-02-23T13:31:41.005Z,5.80
2023-02-23T13:34:40.757Z,5.74
2023-02-23T13:37:11.703Z,5.76
2023-02-23T13:39:49.118Z,5.83
2023-02-23T13:42:19.213Z,5.88
2023-02-23T13:45:28.492Z,5.91
2023-02-23T13:47:55.631Z,5.91
2023-02-23T13:50:42.870Z,5.86
2023-02-23T13:53:32.146Z,5.84
2023-02-23T13:56:07.018Z,5.85
2023-02-23T13:58:35.729Z,5.81
2023-02-23T14:01:17.274Z,5.74
2023-02-23T14:03:54.480Z,5.73
2023-02-23T14:06:25.060Z,5.67
2023-02-23T14:08:59.220Z,5.63
2023-02-23T14:11:46.256Z,5.62
2023-02-23T14:14:42.341Z,5.62
2023-02-23T14:17:15.402Z,5.64
2023-02-23T14:20:06.505Z,5.59
2023-02-23T14:22:35.422Z,5.50
2023-02-23T14:25:34.112Z,5.50
2023-02-23T14:28:49.235Z,5.48
2023-02-23T14:31:21.032Z,5.46
2023-02-23T14:33:49.876Z,5.41
2023-02-23T14:36:26.375Z,5.31
2023-02-23T14:38:53.514Z,5.21
2023-02-23T14:41:30.147Z,5.15
2023-02-23T14:44:27.149Z,5.07
2023-02-23T14:47:15.949Z,5.01
2023-02-23T14:49:55.291Z,5.03
2023-02-23T14:52:24.699Z,5.06
2023-02-23T14:54:52.750Z,5.04
2023-02-23T14:57:25.839Z,5.02
2023-02-23T14:59:58.558Z,5.00
2023-02-23T15:02:28.168Z,4.96
2023-02-23T15:04:56.094Z,4.94
2023-02-23T15:07:28.053Z,4.92
2023-02-23T15:09:57.484Z,4.88
2023-02-23T15:12:28.728Z,4.87
2023-02-23T15:15:10.262Z,4.86
2023-02-23T15:17:41.663Z,4.85
2023-02-23T15:20:16.811Z,4.83
2023-02-23T15:22:48.714Z,4.81
2023-02-23T15:25:20.562Z,4.78
2023-02-23T15:27:48.737Z,4.76
2023-02-23T15:30:31.183Z,4.73
2023-02-23T15:33:11.811Z,4.70
2023-02-23T15:36:28.437Z,4.67
2023-02-23T15:39:00.379Z,4.63
2023-02-23T15:41:33.284Z,4.62
2023-02-23T15:44:14.904Z,4.60
2023-02-23T15:46:44.402Z,4.55
2023-02-23T15:49:19.482Z,4.49
2023-02-23T15:51:51.219Z,4.43
2023-02-23T15:54:27.104Z,4.42
2023-02-23T15:57:02.751Z,4.42
2023-02-23T15:59:31.291Z,4.43
2023-02-23T16:02:00.183Z,4.40
2023-02-23T16:04:33.116Z,4.38
2023-02-23T16:07:07.641Z,4.40
2023-02-23T16:09:39.250Z,4.41
2023-02-23T16:12:17.785Z,4.42
2023-02-23T16:14:55.587Z,4.43
2023-02-23T16:17:44.370Z,4.43
2023-02-23T16:20:26.119Z,4.42
2023-02-23T16:22:55.056Z,4.36
2023-02-23T16:25:26.434Z,4.32
2023-02-23T16:27:59.989Z,4.29
2023-02-23T16:30:32.842Z,4.24
2023-02-23T16:33:20.849Z,4.21
2023-02-23T16:35:51.517Z,4.15
2023-02-23T16:38:28.292Z,4.14
2023-02-23T16:40:55.607Z,4.15
2023-02-23T16:43:23.035Z,4.16
2023-02-23T16:45:50.669Z,4.18
2023-02-23T16:48:18.921Z,4.19
2023-02-23T16:50:46.406Z,4.18
2023-02-23T16:53:13.632Z,4.19
2023-02-23T16:55:47.040Z,4.17
2023-02-23T16:58:19.897Z,4.16
2023-02-23T17:00:48.092Z,4.16
2023-02-23T17:03:21.589Z,4.18
2023-02-23T17:05:48.715Z,4.19
2023-02-23T17:08:15.944Z,4.20
2023-02-23T17:10:46.009Z,4.22
2023-02-23T17:13:23.624Z,4.22
2023-02-23T17:15:53.894Z,4.25
2023-02-23T17:20:57.886Z,4.29
2023-02-23T17:23:27.539Z,4.31
2023-02-23T17:25:58.602Z,4.33
2023-02-23T17:28:25.962Z,4.31
2023-02-23T17:30:54.300Z,4.30
2023-02-23T17:33:21.556Z,4.24
2023-02-23T17:35:48.817Z,4.21
2023-02-23T17:38:16.416Z,4.19
2023-02-23T17:40:44.219Z,4.19
2023-02-23T17:43:11.527Z,4.19
2023-02-23T17:45:38.786Z,4.21
2023-02-23T17:48:06.004Z,4.24
2023-02-23T17:50:33.185Z,4.29
2023-02-23T17:53:00.431Z,4.34
2023-02-23T17:55:27.596Z,4.36
2023-02-23T17:57:54.946Z,4.35
2023-02-23T18:00:22.302Z,4.33
2023-02-23T18:02:49.439Z,4.32
2023-02-23T18:09:50.268Z,4.26
2023-02-23T18:12:19.378Z,4.26
2023-02-23T18:14:47.070Z,4.26
2023-02-23T18:17:15.691Z,4.25
2023-02-23T18:19:45.752Z,4.25
2023-02-23T18:22:14.050Z,4.26
2023-02-23T18:24:42.046Z,4.23
2023-02-23T18:27:09.325Z,4.17
2023-02-23T18:29:36.649Z,4.12
2023-02-23T18:32:07.096Z,4.09
2023-02-23T18:34:35.027Z,4.10
2023-02-23T18:37:03.624Z,4.10
2023-02-23T18:39:32.098Z,4.09
2023-02-23T18:42:00.663Z,4.10
2023-02-23T18:44:28.137Z,4.12
2023-02-23T18:46:55.429Z,4.11
2023-02-23T18:49:24.592Z,4.10
2023-02-23T18:51:51.922Z,4.10
2023-02-23T18:54:19.453Z,4.10
2023-02-23T18:56:48.550Z,4.10
2023-02-23T18:59:15.859Z,4.09
2023-02-23T19:01:45.490Z,4.10
2023-02-23T19:04:13.346Z,4.09
2023-02-23T19:06:43.874Z,4.08
2023-02-23T19:09:14.465Z,4.09
2023-02-23T19:11:42.985Z,4.10
2023-02-23T19:14:16.649Z,4.07
2023-02-23T19:16:45.569Z,4.05
2023-02-23T19:19:13.791Z,4.06
2023-02-23T19:21:41.283Z,4.08
2023-02-23T19:24:08.546Z,4.08
2023-02-23T19:26:37.584Z,4.07
2023-02-23T19:29:05.136Z,4.08
2023-02-23T19:31:32.760Z,4.07
2023-02-23T19:34:03.406Z,4.04
2023-02-23T19:36:31.881Z,4.01
2023-02-23T19:39:06.270Z,3.99
2023-02-23T19:41:34.280Z,4.01
2023-02-23T19:44:01.746Z,4.00
2023-02-23T19:46:29.474Z,4.03
2023-02-23T19:48:57.072Z,4.04
2023-02-23T19:51:24.709Z,4.08
2023-02-23T19:53:55.848Z,4.12
2023-02-23T19:56:28.113Z,4.14
2023-02-23T19:58:57.019Z,4.12
2023-02-23T20:01:27.749Z,4.12
2023-02-23T20:03:55.914Z,4.11
2023-02-23T20:06:30.617Z,4.07
2023-02-23T20:09:00.211Z,4.10
2023-02-23T20:11:28.040Z,4.13
2023-02-23T20:13:56.522Z,4.14
2023-02-23T20:16:29.550Z,4.19
2023-02-23T20:19:00.647Z,4.21
2023-02-23T20:21:30.760Z,4.18
2023-02-23T20:23:59.748Z,4.18
2023-02-23T20:26:30.255Z,4.15
2023-02-23T20:28:58.401Z,4.13
2023-02-23T20:31:29.499Z,4.14
2023-02-23T20:33:59.188Z,4.13
2023-02-23T20:36:26.640Z,4.14
2023-02-23T20:38:53.825Z,4.19
2023-02-23T20:41:21.538Z,4.22
2023-02-23T20:43:49.156Z,4.25
2023-02-23T20:46:17.324Z,4.24
2023-02-23T20:48:44.665Z,4.22
2023-02-23T20:51:18.018Z,4.23
2023-02-23T20:53:48.244Z,4.23
2023-02-23T20:56:17.838Z,4.22
2023-02-23T20:58:46.024Z,4.22
2023-02-23T21:01:20.763Z,4.25
2023-02-23T21:03:51.402Z,4.29
2023-02-23T21:06:23.138Z,4.31
2023-02-23T21:08:51.129Z,4.33
2023-02-23T21:11:20.051Z,4.34
2023-02-23T21:13:47.643Z,4.36
2023-02-23T21:16:17.190Z,4.38
2023-02-23T21:18:44.557Z,4.39
2023-02-23T21:21:14.059Z,4.39
2023-02-23T21:23:45.131Z,4.36
2023-02-23T21:26:16.209Z,4.33
2023-02-23T21:28:45.538Z,4.32
2023-02-23T21:31:14.550Z,4.31
2023-02-23T21:33:43.257Z,4.26
2023-02-23T21:36:11.450Z,4.23
2023-02-23T21:38:40.731Z,4.20
2023-02-23T21:41:08.906Z,4.19
2023-02-23T21:43:37.378Z,4.20
2023-02-23T21:46:12.333Z,4.18
2023-02-23T21:48:39.699Z,4.15
2023-02-23T21:51:11.494Z,4.12
2023-02-23T21:53:39.381Z,4.09
2023-02-23T21:56:15.685Z,4.07
2023-02-23T21:58:55.081Z,4.07
2023-02-23T22:01:29.432Z,4.06
2023-02-23T22:03:57.844Z,4.07
2023-02-23T22:06:28.344Z,4.07
2023-02-23T22:08:56.860Z,4.07
2023-02-23T22:11:26.939Z,4.07
2023-02-23T22:14:00.232Z,4.06
2023-02-23T22:16:31.868Z,4.06
2023-02-23T22:19:03.638Z,4.07
2023-02-23T22:21:37.016Z,4.07
2023-02-23T22:24:05.590Z,4.06
2023-02-23T22:26:34.618Z,4.07
2023-02-23T22:29:02.009Z,4.10
2023-02-23T22:31:29.224Z,4.13
2023-02-23T22:33:56.933Z,4.13
2023-02-23T22:36:24.317Z,4.12
2023-02-23T22:38:51.670Z,4.12
2023-02-23T22:41:19.539Z,4.12
2023-02-23T22:43:47.268Z,4.14
2023-02-23T22:46:16.568Z,4.16
2023-02-23T22:48:45.162Z,4.20
2023-02-23T22:51:14.138Z,4.20
2023-02-23T22:53:41.429Z,4.20
2023-02-23T22:56:08.733Z,4.22
2023-02-23T22:58:36.862Z,4.22
2023-02-23T23:01:06.373Z,4.24
2023-02-23T23:03:36.717Z,4.26
2023-02-23T23:06:08.140Z,4.28
2023-02-23T23:08:38.824Z,4.29
2023-02-23T23:11:09.669Z,4.28
2023-02-23T23:13:44.877Z,4.27
2023-02-23T23:16:25.537Z,4.29
2023-02-23T23:19:04.123Z,4.32
2023-02-23T23:21:33.367Z,4.33
2023-02-23T23:24:03.194Z,4.34
2023-02-23T23:26:31.962Z,4.36
2023-02-23T23:29:01.271Z,4.37
2023-02-23T23:31:30.742Z,4.38
2023-02-23T23:34:07.363Z,4.41
2023-02-23T23:36:46.398Z,4.42
2023-02-23T23:39:16.410Z,4.44
2023-02-23T23:41:48.064Z,4.46
2023-02-23T23:44:29.377Z,4.49
2023-02-23T23:46:58.452Z,4.55
2023-02-23T23:49:26.021Z,4.61
2023-02-23T23:51:56.633Z,4.64
2023-02-23T23:54:27.407Z,4.66
2023-02-23T23:56:55.548Z,4.68
2023-02-23T23:59:25.321Z,4.71
